createdAt,value
2023-04-08T00:02:14.972Z,1.00
2023-04-08T00:04:43.627Z,1.10
2023-04-08T00:07:12.792Z,1.15
2023-04-08T00:09:42.339Z,1.20
2023-04-08T00:12:10.797Z,1.17
2023-04-08T00:14:40.920Z,1.20
2023-04-08T00:17:10.411Z,1.30
2023-04-08T00:19:38.639Z,0.93
2023-04-08T00:22:06.925Z,1.65
2023-04-08T00:24:36.191Z,1.13
2023-04-08T00:27:06.051Z,1.10
2023-04-08T00:29:34.258Z,1.10
2023-04-08T00:32:02.950Z,1.30
2023-04-08T00:34:31.220Z,1.20
2023-04-08T00:36:59.488Z,1.30
2023-04-08T00:39:27.768Z,1.05
2023-04-08T00:41:56.275Z,1.10
2023-04-08T00:44:25.924Z,1.10
2023-04-08T00:46:54.160Z,1.10
2023-04-08T00:49:22.402Z,1.20
2023-04-08T00:51:50.696Z,1.20
2023-04-08T00:54:19.030Z,1.02
2023-04-08T00:56:47.512Z,1.10
2023-04-08T00:59:16.158Z,1.17
2023-04-08T01:01:56.496Z,1.13
2023-04-08T01:04:34.574Z,1.30
2023-04-08T01:07:12.770Z,1.30
2023-04-08T01:09:46.126Z,1.00
2023-04-08T01:12:21.136Z,1.00
2023-04-08T01:14:52.705Z,1.58
2023-04-08T01:17:24.118Z,1.00
2023-04-08T01:19:52.789Z,1.20
2023-04-08T01:22:28.431Z,1.10
2023-04-08T01:25:03.919Z,1.85
2023-04-08T01:27:34.268Z,1.10
2023-04-08T01:30:04.453Z,1.48
2023-04-08T01:32:35.256Z,1.35
2023-04-08T01:35:04.670Z,0.90
2023-04-08T01:37:34.284Z,1.40
2023-04-08T01:40:03.728Z,0.93
2023-04-08T01:42:35.216Z,1.95
2023-04-08T01:45:04.836Z,0.98
2023-04-08T01:47:35.341Z,1.00
2023-04-08T01:50:04.556Z,1.00
2023-04-08T01:52:36.386Z,0.82
2023-04-08T01:55:05.724Z,0.95
2023-04-08T01:57:39.216Z,1.00
2023-04-08T02:00:11.225Z,0.90
2023-04-08T02:02:43.721Z,1.03
2023-04-08T02:05:12.069Z,0.80
2023-04-08T02:07:40.440Z,0.95
2023-04-08T02:10:09.850Z,0.80
2023-04-08T02:12:40.030Z,0.93
2023-04-08T02:15:09.883Z,0.80
2023-04-08T02:17:46.138Z,1.00
2023-04-08T02:20:20.532Z,0.82
2023-04-08T02:23:07.155Z,0.90
2023-04-08T02:25:40.122Z,0.93
2023-04-08T02:28:13.354Z,0.90
2023-04-08T02:30:46.713Z,1.48
2023-04-08T02:33:15.896Z,2.08
2023-04-08T02:35:46.207Z,2.33
2023-04-08T02:38:14.465Z,1.20
2023-04-08T02:40:43.143Z,0.90
2023-04-08T02:43:12.714Z,1.00
2023-04-08T02:45:44.331Z,0.93
2023-04-08T02:48:12.626Z,1.00
2023-04-08T02:50:41.233Z,0.90
2023-04-08T02:53:10.919Z,0.90
2023-04-08T02:55:40.117Z,1.00
2023-04-08T02:58:08.379Z,0.80
2023-04-08T03:00:39.711Z,0.90
2023-04-08T03:03:08.186Z,0.90
2023-04-08T03:05:36.502Z,0.93
2023-04-08T03:08:04.886Z,0.82
2023-04-08T03:10:33.068Z,1.00
2023-04-08T03:13:01.348Z,0.80
2023-04-08T03:15:29.575Z,0.93
2023-04-08T03:17:59.211Z,0.95
2023-04-08T03:20:27.664Z,0.90
2023-04-08T03:22:56.078Z,1.00
2023-04-08T03:25:24.281Z,0.93
2023-04-08T03:27:52.496Z,1.00
2023-04-08T03:30:20.888Z,0.90
2023-04-08T03:32:49.275Z,0.90
2023-04-08T03:35:18.914Z,0.90
2023-04-08T03:37:47.757Z,0.90
2023-04-08T03:40:15.975Z,0.85
2023-04-08T03:42:44.193Z,0.87
2023-04-08T03:45:12.606Z,1.00
2023-04-08T03:47:40.948Z,1.10
2023-04-08T03:50:10.665Z,1.08
2023-04-08T03:52:40.251Z,0.80
2023-04-08T03:55:09.660Z,1.00
2023-04-08T03:57:37.874Z,0.98
2023-04-08T04:00:07.973Z,0.93
2023-04-08T04:02:36.324Z,0.80
2023-04-08T04:05:05.033Z,1.10
2023-04-08T04:07:33.251Z,0.90
2023-04-08T04:10:02.974Z,0.90
2023-04-08T04:12:31.262Z,1.08
2023-04-08T04:14:59.454Z,1.00
2023-04-08T04:17:27.756Z,1.05
2023-04-08T04:19:56.417Z,1.00
2023-04-08T04:22:24.650Z,1.20
2023-04-08T04:24:52.820Z,1.80
2023-04-08T04:27:22.434Z,1.10
2023-04-08T04:29:50.647Z,0.93
2023-04-08T04:32:19.490Z,1.10
2023-04-08T04:34:47.732Z,1.02
2023-04-08T04:37:16.312Z,1.05
2023-04-08T04:39:44.520Z,1.13
2023-04-08T04:42:12.985Z,0.80
2023-04-08T04:44:42.557Z,1.10
2023-04-08T04:47:10.789Z,1.02
2023-04-08T04:49:40.209Z,1.20
2023-04-08T04:52:08.480Z,1.10
2023-04-08T04:54:36.709Z,1.40
2023-04-08T04:57:05.061Z,0.93
2023-04-08T04:59:33.276Z,1.10
2023-04-08T05:02:02.908Z,0.90
2023-04-08T05:04:31.539Z,1.00
2023-04-08T05:07:01.474Z,1.20
2023-04-08T05:09:31.069Z,1.10
2023-04-08T05:11:59.317Z,1.10
2023-04-08T05:14:30.364Z,1.08
2023-04-08T05:16:58.814Z,4.07
2023-04-08T05:19:28.402Z,1.70
2023-04-08T05:21:56.602Z,2.70
2023-04-08T05:24:24.903Z,2.70
2023-04-08T05:26:53.426Z,2.10
2023-04-08T05:29:22.071Z,1.50
2023-04-08T05:31:50.524Z,2.10
2023-04-08T05:34:23.030Z,2.00
2023-04-08T05:36:52.991Z,1.23
2023-04-08T05:39:21.305Z,1.38
2023-04-08T05:41:49.497Z,1.27
2023-04-08T05:44:17.746Z,1.10
2023-04-08T05:46:45.967Z,1.10
2023-04-08T05:49:14.247Z,1.47
2023-04-08T05:51:42.463Z,1.13
2023-04-08T05:54:12.104Z,1.42
2023-04-08T05:56:40.286Z,2.78
2023-04-08T05:59:08.590Z,1.63
2023-04-08T06:01:36.913Z,1.50
2023-04-08T06:04:05.537Z,2.13
2023-04-08T06:06:33.845Z,1.60
2023-04-08T06:09:02.049Z,1.30
2023-04-08T06:11:31.593Z,1.27
2023-04-08T06:13:59.823Z,1.80
2023-04-08T06:16:28.074Z,1.30
2023-04-08T06:18:56.328Z,2.45
2023-04-08T06:21:24.520Z,1.40
2023-04-08T06:23:52.733Z,1.63
2023-04-08T06:26:20.965Z,1.67
2023-04-08T06:28:50.848Z,5.28
2023-04-08T06:31:19.303Z,1.80
2023-04-08T06:33:47.537Z,3.60
2023-04-08T06:36:16.313Z,6.40
2023-04-08T06:38:44.549Z,2.08
2023-04-08T06:41:12.766Z,2.10
2023-04-08T06:43:41.155Z,2.58
2023-04-08T06:46:10.988Z,4.20
2023-04-08T06:48:40.228Z,2.03
2023-04-08T06:51:08.856Z,2.20
2023-04-08T06:53:37.082Z,2.50
2023-04-08T06:56:05.845Z,2.60
2023-04-08T06:58:34.105Z,2.10
2023-04-08T07:01:03.325Z,4.85
2023-04-08T07:03:33.016Z,2.55
2023-04-08T07:06:01.241Z,2.50
2023-04-08T07:08:29.446Z,3.42
2023-04-08T07:10:57.690Z,2.17
2023-04-08T07:13:25.889Z,3.45
2023-04-08T07:15:54.201Z,3.90
2023-04-08T07:18:22.561Z,3.10
2023-04-08T07:20:54.190Z,6.95
2023-04-08T07:23:22.918Z,4.45
2023-04-08T07:25:51.527Z,3.00
2023-04-08T07:28:19.762Z,9.82
2023-04-08T07:30:48.047Z,2.80
2023-04-08T07:33:16.556Z,3.45
2023-04-08T07:35:47.585Z,3.65
2023-04-08T07:38:17.209Z,5.25
2023-04-08T07:40:45.431Z,8.63
2023-04-08T07:43:13.617Z,19.63
2023-04-08T07:45:42.179Z,6.40
2023-04-08T07:48:10.455Z,2.80
2023-04-08T07:51:08.991Z,3.42
2023-04-08T07:53:28.579Z,3.33
2023-04-08T07:55:56.829Z,3.15
2023-04-08T07:58:25.388Z,7.37
2023-04-08T08:00:54.504Z,2.77
2023-04-08T08:03:22.826Z,2.80
2023-04-08T08:05:51.180Z,3.53
2023-04-08T08:08:19.353Z,3.75
2023-04-08T08:10:48.896Z,2.65
2023-04-08T08:13:21.202Z,5.07
2023-04-08T08:15:54.536Z,2.45
2023-04-08T08:18:22.748Z,4.13
2023-04-08T08:20:51.067Z,7.15
2023-04-08T08:23:19.268Z,2.60
2023-04-08T08:25:48.816Z,5.30
2023-04-08T08:28:16.950Z,2.50
2023-04-08T08:30:45.127Z,3.13
2023-04-08T08:33:13.300Z,9.85
2023-04-08T08:35:41.554Z,4.15
2023-04-08T08:38:09.709Z,3.95
2023-04-08T08:40:37.963Z,4.97
2023-04-08T08:43:07.694Z,2.87
2023-04-08T08:45:35.877Z,3.53
2023-04-08T08:48:04.656Z,2.90
2023-04-08T08:50:34.007Z,5.10
2023-04-08T08:53:02.558Z,3.45
2023-04-08T08:55:53.155Z,17.25
2023-04-08T08:58:23.462Z,5.55
2023-04-08T09:00:51.649Z,16.10
2023-04-08T09:03:21.920Z,16.73
2023-04-08T09:05:52.227Z,9.10
2023-04-08T09:08:31.884Z,3.90
2023-04-08T09:11:16.980Z,8.15
2023-04-08T09:13:47.761Z,8.70
2023-04-08T09:16:18.906Z,7.20
2023-04-08T09:18:49.684Z,5.03
2023-04-08T09:21:19.281Z,3.90
2023-04-08T09:23:49.640Z,8.00
2023-04-08T09:26:19.780Z,4.88
2023-04-08T09:29:11.087Z,10.00
2023-04-08T09:31:47.607Z,21.05
2023-04-08T09:34:19.679Z,10.00
2023-04-08T09:36:49.153Z,9.55
2023-04-08T09:39:17.715Z,10.68
2023-04-08T09:41:48.928Z,6.17
2023-04-08T09:44:20.733Z,21.15
2023-04-08T09:47:02.499Z,17.20
2023-04-08T09:49:37.045Z,12.37
2023-04-08T09:52:10.988Z,21.67
2023-04-08T09:54:49.174Z,14.45
2023-04-08T09:57:41.688Z,7.70
2023-04-08T10:00:15.032Z,10.82
2023-04-08T10:03:02.212Z,14.70
2023-04-08T10:05:33.047Z,10.90
2023-04-08T10:08:02.052Z,5.07
2023-04-08T10:10:30.963Z,8.07
2023-04-08T10:12:59.909Z,5.22
2023-04-08T10:15:31.339Z,5.43
2023-04-08T10:18:36.533Z,7.78
2023-04-08T10:21:05.299Z,9.30
2023-04-08T10:23:59.130Z,6.38
2023-04-08T10:26:38.883Z,10.55
2023-04-08T10:29:34.778Z,9.85
2023-04-08T10:32:04.750Z,5.40
2023-04-08T10:34:33.275Z,6.17
2023-04-08T10:37:02.258Z,8.75
2023-04-08T10:39:31.724Z,5.65
2023-04-08T10:42:02.665Z,4.72
2023-04-08T10:44:31.198Z,6.68
2023-04-08T10:47:00.287Z,4.63
2023-04-08T10:49:37.013Z,5.35
2023-04-08T10:52:10.019Z,5.55
2023-04-08T10:54:39.591Z,3.22
2023-04-08T10:57:08.667Z,3.75
2023-04-08T10:59:37.204Z,4.97
2023-04-08T11:02:05.858Z,1.80
2023-04-08T11:04:42.640Z,3.60
2023-04-08T11:07:11.361Z,2.80
2023-04-08T11:09:41.103Z,2.83
2023-04-08T11:12:09.870Z,2.47
2023-04-08T11:14:39.277Z,2.60
2023-04-08T11:17:08.775Z,2.72
2023-04-08T11:19:39.277Z,3.40
2023-04-08T11:22:09.456Z,2.45
2023-04-08T11:24:38.604Z,4.45
2023-04-08T11:27:08.441Z,3.70
2023-04-08T11:29:38.184Z,3.33
2023-04-08T11:32:06.867Z,2.53
2023-04-08T11:34:40.101Z,3.35
2023-04-08T11:37:09.960Z,2.13
2023-04-08T11:39:44.062Z,3.03
2023-04-08T11:42:28.524Z,2.13
2023-04-08T11:44:57.247Z,2.03
2023-04-08T11:47:33.532Z,2.83
2023-04-08T11:50:02.654Z,2.20
2023-04-08T11:52:49.617Z,2.50
2023-04-08T11:55:25.069Z,1.80
2023-04-08T11:57:54.131Z,2.10
2023-04-08T12:00:23.723Z,2.20
2023-04-08T12:02:53.754Z,2.67
2023-04-08T12:05:22.547Z,1.83
2023-04-08T12:07:52.417Z,0.90
2023-04-08T12:10:21.119Z,1.85
2023-04-08T12:12:49.705Z,1.13
2023-04-08T12:15:18.500Z,1.63
2023-04-08T12:17:47.149Z,2.50
2023-04-08T12:20:17.121Z,2.50
2023-04-08T12:22:45.637Z,2.65
2023-04-08T12:25:15.470Z,3.10
2023-04-08T12:27:43.983Z,2.42
2023-04-08T12:30:14.831Z,3.42
2023-04-08T12:32:46.124Z,3.50
2023-04-08T12:35:15.042Z,2.95
2023-04-08T12:37:43.568Z,2.60
2023-04-08T12:40:12.323Z,2.28
2023-04-08T12:42:42.738Z,2.87
2023-04-08T12:45:11.548Z,1.60
2023-04-08T12:47:40.115Z,2.25
2023-04-08T12:50:10.439Z,2.10
2023-04-08T12:52:39.093Z,1.90
2023-04-08T12:55:08.437Z,3.75
2023-04-08T12:57:36.938Z,3.13
2023-04-08T13:00:08.014Z,2.80
2023-04-08T13:02:36.564Z,2.50
2023-04-08T13:05:05.453Z,2.53
2023-04-08T13:07:33.915Z,2.40
2023-04-08T13:10:03.623Z,2.80
2023-04-08T13:12:32.254Z,1.93
2023-04-08T13:15:01.401Z,1.42
2023-04-08T13:17:31.248Z,2.50
2023-04-08T13:19:59.733Z,1.98
2023-04-08T13:22:28.199Z,2.70
2023-04-08T13:24:56.980Z,1.70
2023-04-08T13:27:25.428Z,1.67
2023-04-08T13:29:53.935Z,2.00
2023-04-08T13:32:22.433Z,2.80
2023-04-08T13:34:52.308Z,2.42
2023-04-08T13:37:20.785Z,2.30
2023-04-08T13:39:49.287Z,4.97
2023-04-08T13:42:17.752Z,2.80
2023-04-08T13:44:46.244Z,2.47
2023-04-08T13:47:14.722Z,2.72
2023-04-08T13:49:43.197Z,2.20
2023-04-08T13:52:13.011Z,3.17
2023-04-08T13:54:41.523Z,2.53
2023-04-08T13:57:10.029Z,2.00
2023-04-08T13:59:38.528Z,2.50
2023-04-08T14:02:07.492Z,2.93
2023-04-08T14:04:36.542Z,1.23
2023-04-08T14:07:05.043Z,2.55
2023-04-08T14:09:35.850Z,2.92
2023-04-08T14:12:04.353Z,1.90
2023-04-08T14:14:33.087Z,3.00
2023-04-08T14:17:01.621Z,2.38
2023-04-08T14:19:30.112Z,3.00
2023-04-08T14:21:58.601Z,2.90
2023-04-08T14:24:27.130Z,3.20
2023-04-08T14:26:57.891Z,2.25
2023-04-08T14:29:27.684Z,2.22
2023-04-08T14:31:56.833Z,3.60
2023-04-08T14:34:25.913Z,1.95
2023-04-08T14:36:54.410Z,4.47
2023-04-08T14:39:22.906Z,2.50
2023-04-08T14:41:51.366Z,3.28
2023-04-08T14:44:21.201Z,2.73
2023-04-08T14:46:49.747Z,4.07
2023-04-08T14:49:18.334Z,1.90
2023-04-08T14:51:46.774Z,2.50
2023-04-08T14:54:16.854Z,3.40
2023-04-08T14:56:45.495Z,2.47
2023-04-08T14:59:13.970Z,3.70
2023-04-08T15:01:44.967Z,2.20
2023-04-08T15:04:13.627Z,2.55
2023-04-08T15:06:42.270Z,3.08
2023-04-08T15:09:11.104Z,3.80
2023-04-08T15:11:39.642Z,2.40
2023-04-08T15:14:08.162Z,3.90
2023-04-08T15:16:36.628Z,3.03
2023-04-08T15:19:06.451Z,2.93
2023-04-08T15:21:34.980Z,3.90
2023-04-08T15:24:03.455Z,2.90
2023-04-08T15:26:32.680Z,3.25
2023-04-08T15:29:01.484Z,3.55
2023-04-08T15:31:30.053Z,2.95
2023-04-08T15:33:59.153Z,2.05
2023-04-08T15:36:29.238Z,3.13
2023-04-08T15:38:57.748Z,2.38
2023-04-08T15:41:26.283Z,4.50
2023-04-08T15:43:55.012Z,3.65
2023-04-08T15:46:23.580Z,2.97
2023-04-08T15:48:52.328Z,4.68
2023-04-08T15:51:21.251Z,4.40
2023-04-08T15:53:51.671Z,4.25
2023-04-08T15:56:20.933Z,2.93
2023-04-08T15:58:49.567Z,2.60
2023-04-08T16:01:18.806Z,2.25
2023-04-08T16:03:47.481Z,2.40
2023-04-08T16:06:16.352Z,2.33
2023-04-08T16:08:46.895Z,2.60
2023-04-08T16:11:17.616Z,4.88
2023-04-08T16:13:46.249Z,4.28
2023-04-08T16:16:14.753Z,4.25
2023-04-08T16:18:46.066Z,1.90
2023-04-08T16:21:15.906Z,4.82
2023-04-08T16:23:44.378Z,4.63
2023-04-08T16:26:12.872Z,2.22
2023-04-08T16:28:42.727Z,3.22
2023-04-08T16:31:11.445Z,3.55
2023-04-08T16:33:40.082Z,5.75
2023-04-08T16:36:08.605Z,4.97
2023-04-08T16:38:37.150Z,3.28
2023-04-08T16:41:06.451Z,4.88
2023-04-08T16:43:34.955Z,8.15
2023-04-08T16:46:12.965Z,4.32
2023-04-08T16:48:42.001Z,5.00
2023-04-08T16:51:10.766Z,3.20
2023-04-08T16:53:39.614Z,4.88
2023-04-08T16:56:14.970Z,4.38
2023-04-08T16:58:43.526Z,2.75
2023-04-08T17:01:14.583Z,3.83
2023-04-08T17:03:43.204Z,5.13
2023-04-08T17:06:13.680Z,2.42
2023-04-08T17:08:43.554Z,2.30
2023-04-08T17:11:14.201Z,3.25
2023-04-08T17:13:44.323Z,4.47
2023-04-08T17:16:16.220Z,2.37
2023-04-08T17:18:45.257Z,2.80
2023-04-08T17:21:15.634Z,3.20
2023-04-08T17:23:44.201Z,3.35
2023-04-08T17:26:12.902Z,2.30
2023-04-08T17:28:43.147Z,2.67
2023-04-08T17:31:11.825Z,3.42
2023-04-08T17:33:41.621Z,1.30
2023-04-08T17:36:10.158Z,2.87
2023-04-08T17:38:40.013Z,1.30
2023-04-08T17:41:10.134Z,3.47
2023-04-08T17:43:38.693Z,3.10
2023-04-08T17:46:07.619Z,2.35
2023-04-08T17:48:36.511Z,3.33
2023-04-08T17:51:07.662Z,3.70
2023-04-08T17:53:36.185Z,3.47
2023-04-08T17:56:05.862Z,3.65
2023-04-08T17:58:34.376Z,3.95
2023-04-08T18:01:02.899Z,3.22
2023-04-08T18:03:31.690Z,3.42
2023-04-08T18:06:00.491Z,2.28
2023-04-08T18:08:30.334Z,2.22
2023-04-08T18:10:58.854Z,2.78
2023-04-08T18:13:27.328Z,3.20
2023-04-08T18:15:55.830Z,2.30
2023-04-08T18:18:25.016Z,2.60
2023-04-08T18:20:53.570Z,2.10
2023-04-08T18:23:22.019Z,1.05
2023-04-08T18:25:52.021Z,3.20
2023-04-08T18:28:22.472Z,3.88
2023-04-08T18:30:53.262Z,1.33
2023-04-08T18:33:21.971Z,3.55
2023-04-08T18:35:52.656Z,2.73
2023-04-08T18:38:21.922Z,3.80
2023-04-08T18:40:52.801Z,2.80
2023-04-08T18:43:21.546Z,2.20
2023-04-08T18:45:50.098Z,2.50
2023-04-08T18:48:18.571Z,4.70
2023-04-08T18:50:47.094Z,3.95
2023-04-08T18:53:15.566Z,1.50
2023-04-08T18:55:44.837Z,2.33
2023-04-08T18:58:14.780Z,2.47
2023-04-08T19:00:43.828Z,1.20
2023-04-08T19:03:12.472Z,1.63
2023-04-08T19:05:41.074Z,3.40
2023-04-08T19:08:09.534Z,1.73
2023-04-08T19:10:38.051Z,1.60
2023-04-08T19:13:06.715Z,1.20
2023-04-08T19:15:37.041Z,1.63
2023-04-08T19:18:05.663Z,4.88
2023-04-08T19:20:34.607Z,3.45
2023-04-08T19:23:03.470Z,2.00
2023-04-08T19:25:31.918Z,2.03
2023-04-08T19:28:00.514Z,2.90
2023-04-08T19:30:29.084Z,1.98
2023-04-08T19:32:59.791Z,3.03
2023-04-08T19:35:28.295Z,1.30
2023-04-08T19:37:56.770Z,2.15
2023-04-08T19:40:25.324Z,2.88
2023-04-08T19:42:54.406Z,4.77
2023-04-08T19:45:22.914Z,2.10
2023-04-08T19:47:51.394Z,3.33
2023-04-08T19:50:22.307Z,3.83
2023-04-08T19:52:50.799Z,3.67
2023-04-08T19:55:19.364Z,3.65
2023-04-08T19:57:48.050Z,4.43
2023-04-08T20:00:16.670Z,6.43
2023-04-08T20:02:45.544Z,6.00
2023-04-08T20:05:16.292Z,3.22
2023-04-08T20:07:46.208Z,4.38
2023-04-08T20:10:14.762Z,6.00
2023-04-08T20:12:43.345Z,7.43
2023-04-08T20:15:23.778Z,7.45
2023-04-08T20:17:54.032Z,3.95
2023-04-08T20:20:22.800Z,5.32
2023-04-08T20:22:53.099Z,3.47
2023-04-08T20:25:21.741Z,6.47
2023-04-08T20:27:50.210Z,4.80
2023-04-08T20:30:18.731Z,3.75
2023-04-08T20:32:47.256Z,3.30
2023-04-08T20:35:15.751Z,7.03
2023-04-08T20:37:44.258Z,4.55
2023-04-08T20:40:15.821Z,2.83
2023-04-08T20:42:45.447Z,3.10
2023-04-08T20:45:14.234Z,5.32
2023-04-08T20:47:44.608Z,7.07
2023-04-08T20:50:13.674Z,2.93
2023-04-08T20:52:42.198Z,6.68
2023-04-08T20:55:11.245Z,4.82
2023-04-08T20:57:41.795Z,3.72
2023-04-08T21:00:12.840Z,4.53
2023-04-08T21:02:41.461Z,5.95
2023-04-08T21:05:10.643Z,3.92
2023-04-08T21:07:44.278Z,2.20
2023-04-08T21:10:14.214Z,3.15
2023-04-08T21:12:44.848Z,1.77
2023-04-08T21:15:13.380Z,3.35
2023-04-08T21:17:41.903Z,3.20
2023-04-08T21:20:11.645Z,3.00
2023-04-08T21:22:40.361Z,3.13
2023-04-08T21:25:09.443Z,3.25
2023-04-08T21:27:37.969Z,2.97
2023-04-08T21:30:09.057Z,3.92
2023-04-08T21:32:37.606Z,3.13
2023-04-08T21:35:06.569Z,3.05
2023-04-08T21:37:35.413Z,2.58
2023-04-08T21:40:04.989Z,2.97
2023-04-08T21:42:33.504Z,2.00
2023-04-08T21:45:02.012Z,3.27
2023-04-08T21:47:32.083Z,2.72
2023-04-08T21:50:00.744Z,2.22
2023-04-08T21:52:30.035Z,1.95
2023-04-08T21:54:58.834Z,3.45
2023-04-08T21:57:27.424Z,2.45
2023-04-08T21:59:55.880Z,3.47
2023-04-08T22:02:24.676Z,2.83
2023-04-08T22:04:54.641Z,2.40
2023-04-08T22:07:23.150Z,2.75
2023-04-08T22:09:51.826Z,4.50
2023-04-08T22:12:20.445Z,4.97
2023-04-08T22:14:48.909Z,2.97
2023-04-08T22:17:17.415Z,2.40
2023-04-08T22:19:45.855Z,3.35
2023-04-08T22:22:15.865Z,2.80
2023-04-08T22:24:44.371Z,3.33
2023-04-08T22:27:12.850Z,3.65
2023-04-08T22:29:41.317Z,6.00
2023-04-08T22:32:09.838Z,6.10
2023-04-08T22:34:38.310Z,4.20
2023-04-08T22:37:06.833Z,4.90
2023-04-08T22:39:36.694Z,6.63
2023-04-08T22:42:05.204Z,7.40
2023-04-08T22:44:33.666Z,5.53
2023-04-08T22:47:02.191Z,5.15
2023-04-08T22:49:30.741Z,4.50
2023-04-08T22:51:59.221Z,4.22
2023-04-08T22:54:27.754Z,4.63
2023-04-08T22:56:57.877Z,4.68
2023-04-08T22:59:26.339Z,7.00
2023-04-08T23:01:54.909Z,5.43
2023-04-08T23:04:23.477Z,5.38
2023-04-08T23:06:51.996Z,6.25
2023-04-08T23:09:20.729Z,3.90
2023-04-08T23:11:49.230Z,4.05
2023-04-08T23:14:19.066Z,3.53
2023-04-08T23:16:47.533Z,3.47
2023-04-08T23:19:16.296Z,3.65
2023-04-08T23:21:44.759Z,5.22
2023-04-08T23:24:13.353Z,6.50
2023-04-08T23:26:41.834Z,7.10
2023-04-08T23:29:10.624Z,6.20
2023-04-08T23:31:40.596Z,4.13
2023-04-08T23:34:09.168Z,6.63
2023-04-08T23:36:38.293Z,5.17
2023-04-08T23:39:06.494Z,3.30
2023-04-08T23:41:34.650Z,5.35
2023-04-08T23:44:02.876Z,4.75
2023-04-08T23:46:31.304Z,3.37
2023-04-08T23:49:00.890Z,7.82
2023-04-08T23:51:29.092Z,3.75
2023-04-08T23:53:57.252Z,4.63
2023-04-08T23:56:25.921Z,5.50
2023-04-08T23:58:54.402Z,5.50
